sensor_id;sensor_type;location;lat;lon;timestamp;P1;durP1;ratioP1;P2;durP2;ratioP2
49310;SDS011;35177;45.900;5.946;2023-07-24T00:02:09;9.43;;;4.15;;
49310;SDS011;35177;45.900;5.946;2023-07-24T00:04:35;8.43;;;3.53;;
49310;SDS011;35177;45.900;5.946;2023-07-24T00:07:00;7.10;;;3.10;;
49310;SDS011;35177;45.900;5.946;2023-07-24T00:09:26;8.10;;;3.97;;
49310;SDS011;35177;45.900;5.946;2023-07-24T00:11:51;7.18;;;3.90;;
49310;SDS011;35177;45.900;5.946;2023-07-24T00:14:17;11.93;;;3.60;;
49310;SDS011;35177;45.900;5.946;2023-07-24T00:16:42;8.90;;;4.38;;
49310;SDS011;35177;45.900;5.946;2023-07-24T00:19:08;9.45;;;3.95;;
49310;SDS011;35177;45.900;5.946;2023-07-24T00:21:33;5.78;;;4.15;;
49310;SDS011;35177;45.900;5.946;2023-07-24T00:23:59;5.50;;;4.05;;
49310;SDS011;35177;45.900;5.946;2023-07-24T00:26:24;11.10;;;3.88;;
49310;SDS011;35177;45.900;5.946;2023-07-24T00:28:50;7.00;;;3.90;;
49310;SDS011;35177;45.900;5.946;2023-07-24T00:31:15;5.80;;;3.50;;
49310;SDS011;35177;45.900;5.946;2023-07-24T00:33:41;6.72;;;3.95;;
49310;SDS011;35177;45.900;5.946;2023-07-24T00:36:06;7.55;;;4.03;;
49310;SDS011;35177;45.900;5.946;2023-07-24T00:38:32;6.75;;;3.90;;
49310;SDS011;35177;45.900;5.946;2023-07-24T00:40:57;10.35;;;4.50;;
49310;SDS011;35177;45.900;5.946;2023-07-24T00:43:23;6.40;;;4.05;;
49310;SDS011;35177;45.900;5.946;2023-07-24T00:45:48;11.82;;;4.13;;
49310;SDS011;35177;45.900;5.946;2023-07-24T00:48:14;10.60;;;4.20;;
49310;SDS011;35177;45.900;5.946;2023-07-24T00:50:41;6.57;;;4.15;;
49310;SDS011;35177;45.900;5.946;2023-07-24T00:53:07;7.20;;;4.38;;
49310;SDS011;35177;45.900;5.946;2023-07-24T00:55:33;6.35;;;4.30;;
49310;SDS011;35177;45.900;5.946;2023-07-24T00:57:59;6.95;;;4.00;;
49310;SDS011;35177;45.900;5.946;2023-07-24T01:00:25;8.15;;;4.35;;
49310;SDS011;35177;45.900;5.946;2023-07-24T01:02:51;8.13;;;3.85;;
49310;SDS011;35177;45.900;5.946;2023-07-24T01:05:18;6.47;;;4.05;;
49310;SDS011;35177;45.900;5.946;2023-07-24T01:07:45;7.28;;;4.20;;
49310;SDS011;35177;45.900;5.946;2023-07-24T01:10:10;7.35;;;4.22;;
49310;SDS011;35177;45.900;5.946;2023-07-24T01:12:42;6.72;;;4.22;;
49310;SDS011;35177;45.900;5.946;2023-07-24T01:15:19;8.48;;;4.32;;
49310;SDS011;35177;45.900;5.946;2023-07-24T01:17:55;6.47;;;4.22;;
49310;SDS011;35177;45.900;5.946;2023-07-24T01:20:25;8.77;;;4.22;;
49310;SDS011;35177;45.900;5.946;2023-07-24T01:25:56;8.68;;;4.47;;
49310;SDS011;35177;45.900;5.946;2023-07-24T01:28:25;6.78;;;3.83;;
49310;SDS011;35177;45.900;5.946;2023-07-24T01:30:52;5.38;;;3.60;;
49310;SDS011;35177;45.900;5.946;2023-07-24T01:33:18;6.05;;;3.67;;
49310;SDS011;35177;45.900;5.946;2023-07-24T01:35:44;7.43;;;4.10;;
49310;SDS011;35177;45.900;5.946;2023-07-24T01:38:14;8.75;;;4.32;;
49310;SDS011;35177;45.900;5.946;2023-07-24T01:40:39;8.13;;;4.32;;
49310;SDS011;35177;45.900;5.946;2023-07-24T01:43:06;6.38;;;3.90;;
49310;SDS011;35177;45.900;5.946;2023-07-24T01:45:32;6.25;;;4.07;;
49310;SDS011;35177;45.900;5.946;2023-07-24T01:47:57;6.68;;;4.57;;
49310;SDS011;35177;45.900;5.946;2023-07-24T01:50:23;11.00;;;4.70;;
49310;SDS011;35177;45.900;5.946;2023-07-24T01:52:49;7.22;;;3.97;;
49310;SDS011;35177;45.900;5.946;2023-07-24T01:55:14;8.98;;;4.57;;
49310;SDS011;35177;45.900;5.946;2023-07-24T01:57:39;11.00;;;4.15;;
49310;SDS011;35177;45.900;5.946;2023-07-24T02:00:05;4.82;;;3.50;;
49310;SDS011;35177;45.900;5.946;2023-07-24T02:02:31;7.22;;;4.10;;
49310;SDS011;35177;45.900;5.946;2023-07-24T02:04:56;8.63;;;4.10;;
49310;SDS011;35177;45.900;5.946;2023-07-24T02:07:22;11.10;;;4.00;;
49310;SDS011;35177;45.900;5.946;2023-07-24T02:09:47;9.55;;;4.28;;
49310;SDS011;35177;45.900;5.946;2023-07-24T02:12:13;11.25;;;4.20;;
49310;SDS011;35177;45.900;5.946;2023-07-24T02:14:40;6.78;;;3.75;;
49310;SDS011;35177;45.900;5.946;2023-07-24T02:17:06;10.13;;;3.83;;
49310;SDS011;35177;45.900;5.946;2023-07-24T02:19:31;9.82;;;4.18;;
49310;SDS011;35177;45.900;5.946;2023-07-24T02:21:56;10.05;;;4.50;;
49310;SDS011;35177;45.900;5.946;2023-07-24T02:24:22;9.32;;;3.50;;
49310;SDS011;35177;45.900;5.946;2023-07-24T02:26:47;10.43;;;4.25;;
49310;SDS011;35177;45.900;5.946;2023-07-24T02:29:13;7.18;;;4.32;;
49310;SDS011;35177;45.900;5.946;2023-07-24T02:31:38;12.05;;;4.90;;
49310;SDS011;35177;45.900;5.946;2023-07-24T02:34:04;8.65;;;3.95;;
49310;SDS011;35177;45.900;5.946;2023-07-24T02:36:29;7.10;;;4.05;;
49310;SDS011;35177;45.900;5.946;2023-07-24T02:38:55;7.40;;;3.88;;
49310;SDS011;35177;45.900;5.946;2023-07-24T02:41:20;10.43;;;5.00;;
49310;SDS011;35177;45.900;5.946;2023-07-24T02:43:45;10.60;;;4.43;;
49310;SDS011;35177;45.900;5.946;2023-07-24T02:46:12;6.63;;;4.22;;
49310;SDS011;35177;45.900;5.946;2023-07-24T02:48:37;10.77;;;4.45;;
49310;SDS011;35177;45.900;5.946;2023-07-24T02:51:03;9.02;;;5.20;;
49310;SDS011;35177;45.900;5.946;2023-07-24T02:53:28;7.68;;;4.97;;
49310;SDS011;35177;45.900;5.946;2023-07-24T02:55:54;8.25;;;5.35;;
49310;SDS011;35177;45.900;5.946;2023-07-24T02:58:19;9.48;;;5.35;;
49310;SDS011;35177;45.900;5.946;2023-07-24T03:00:45;12.70;;;5.93;;
49310;SDS011;35177;45.900;5.946;2023-07-24T03:03:10;12.10;;;5.70;;
49310;SDS011;35177;45.900;5.946;2023-07-24T03:05:36;9.90;;;5.15;;
49310;SDS011;35177;45.900;5.946;2023-07-24T03:08:01;10.85;;;5.10;;
49310;SDS011;35177;45.900;5.946;2023-07-24T03:10:27;10.27;;;5.85;;
49310;SDS011;35177;45.900;5.946;2023-07-24T03:12:52;8.57;;;5.32;;
49310;SDS011;35177;45.900;5.946;2023-07-24T03:15:18;8.52;;;5.35;;
49310;SDS011;35177;45.900;5.946;2023-07-24T03:17:44;11.68;;;5.68;;
49310;SDS011;35177;45.900;5.946;2023-07-24T03:20:16;12.02;;;5.40;;
49310;SDS011;35177;45.900;5.946;2023-07-24T03:22:43;9.75;;;5.70;;
49310;SDS011;35177;45.900;5.946;2023-07-24T03:25:09;13.57;;;5.85;;
49310;SDS011;35177;45.900;5.946;2023-07-24T03:27:35;9.35;;;6.00;;
49310;SDS011;35177;45.900;5.946;2023-07-24T03:30:01;11.73;;;6.95;;
49310;SDS011;35177;45.900;5.946;2023-07-24T03:32:27;11.13;;;6.55;;
49310;SDS011;35177;45.900;5.946;2023-07-24T03:34:53;13.05;;;5.85;;
49310;SDS011;35177;45.900;5.946;2023-07-24T03:37:18;9.13;;;5.80;;
49310;SDS011;35177;45.900;5.946;2023-07-24T03:39:44;10.23;;;5.63;;
49310;SDS011;35177;45.900;5.946;2023-07-24T03:42:09;11.63;;;6.75;;
49310;SDS011;35177;45.900;5.946;2023-07-24T03:44:38;10.23;;;6.20;;
49310;SDS011;35177;45.900;5.946;2023-07-24T03:47:04;9.82;;;6.28;;
49310;SDS011;35177;45.900;5.946;2023-07-24T03:49:30;7.28;;;6.03;;
49310;SDS011;35177;45.900;5.946;2023-07-24T03:51:55;8.88;;;5.60;;
49310;SDS011;35177;45.900;5.946;2023-07-24T03:54:21;11.10;;;6.13;;
49310;SDS011;35177;45.900;5.946;2023-07-24T03:56:46;10.50;;;6.65;;
49310;SDS011;35177;45.900;5.946;2023-07-24T03:59:11;11.00;;;6.18;;
49310;SDS011;35177;45.900;5.946;2023-07-24T04:01:37;9.05;;;5.70;;
49310;SDS011;35177;45.900;5.946;2023-07-24T04:04:02;10.82;;;7.60;;
49310;SDS011;35177;45.900;5.946;2023-07-24T04:06:28;14.15;;;6.63;;
49310;SDS011;35177;45.900;5.946;2023-07-24T04:08:53;8.48;;;5.93;;
49310;SDS011;35177;45.900;5.946;2023-07-24T04:11:19;13.20;;;5.97;;
49310;SDS011;35177;45.900;5.946;2023-07-24T04:13:44;10.57;;;5.90;;
49310;SDS011;35177;45.900;5.946;2023-07-24T04:16:10;10.15;;;6.45;;
49310;SDS011;35177;45.900;5.946;2023-07-24T04:18:35;12.65;;;6.70;;
49310;SDS011;35177;45.900;5.946;2023-07-24T04:21:01;11.85;;;7.15;;
49310;SDS011;35177;45.900;5.946;2023-07-24T04:23:27;9.00;;;5.80;;
49310;SDS011;35177;45.900;5.946;2023-07-24T04:25:52;9.48;;;6.80;;
49310;SDS011;35177;45.900;5.946;2023-07-24T04:28:17;14.20;;;6.88;;
49310;SDS011;35177;45.900;5.946;2023-07-24T04:30:43;13.75;;;6.82;;
49310;SDS011;35177;45.900;5.946;2023-07-24T04:33:08;12.35;;;6.32;;
49310;SDS011;35177;45.900;5.946;2023-07-24T04:35:34;8.70;;;6.20;;
49310;SDS011;35177;45.900;5.946;2023-07-24T04:38:00;16.63;;;6.78;;
49310;SDS011;35177;45.900;5.946;2023-07-24T04:40:25;11.23;;;7.07;;
49310;SDS011;35177;45.900;5.946;2023-07-24T04:42:51;10.07;;;6.63;;
49310;SDS011;35177;45.900;5.946;2023-07-24T04:45:16;10.48;;;6.47;;
49310;SDS011;35177;45.900;5.946;2023-07-24T04:47:42;10.50;;;6.80;;
49310;SDS011;35177;45.900;5.946;2023-07-24T04:50:07;10.23;;;7.05;;
49310;SDS011;35177;45.900;5.946;2023-07-24T04:52:33;14.18;;;7.40;;
49310;SDS011;35177;45.900;5.946;2023-07-24T04:54:58;12.68;;;6.53;;
49310;SDS011;35177;45.900;5.946;2023-07-24T04:57:24;10.50;;;7.10;;
49310;SDS011;35177;45.900;5.946;2023-07-24T04:59:49;9.70;;;7.05;;
49310;SDS011;35177;45.900;5.946;2023-07-24T05:02:15;14.70;;;7.72;;
49310;SDS011;35177;45.900;5.946;2023-07-24T05:04:40;15.18;;;7.50;;
49310;SDS011;35177;45.900;5.946;2023-07-24T05:07:06;11.73;;;7.50;;
49310;SDS011;35177;45.900;5.946;2023-07-24T05:09:32;17.25;;;7.82;;
49310;SDS011;35177;45.900;5.946;2023-07-24T05:11:57;13.32;;;8.75;;
49310;SDS011;35177;45.900;5.946;2023-07-24T05:14:23;14.63;;;7.30;;
49310;SDS011;35177;45.900;5.946;2023-07-24T05:16:48;11.35;;;7.97;;
49310;SDS011;35177;45.900;5.946;2023-07-24T05:19:14;12.38;;;7.05;;
49310;SDS011;35177;45.900;5.946;2023-07-24T05:21:39;19.70;;;6.97;;
49310;SDS011;35177;45.900;5.946;2023-07-24T05:24:04;12.98;;;7.15;;
49310;SDS011;35177;45.900;5.946;2023-07-24T05:26:30;10.82;;;7.00;;
49310;SDS011;35177;45.900;5.946;2023-07-24T05:28:55;11.88;;;7.30;;
49310;SDS011;35177;45.900;5.946;2023-07-24T05:31:21;10.63;;;7.28;;
49310;SDS011;35177;45.900;5.946;2023-07-24T05:33:46;13.65;;;7.80;;
49310;SDS011;35177;45.900;5.946;2023-07-24T05:36:12;11.40;;;7.40;;
49310;SDS011;35177;45.900;5.946;2023-07-24T05:38:37;14.75;;;7.38;;
49310;SDS011;35177;45.900;5.946;2023-07-24T05:41:03;12.52;;;8.65;;
49310;SDS011;35177;45.900;5.946;2023-07-24T05:43:30;11.48;;;7.60;;
49310;SDS011;35177;45.900;5.946;2023-07-24T05:45:56;12.82;;;8.82;;
49310;SDS011;35177;45.900;5.946;2023-07-24T05:48:22;15.38;;;9.10;;
49310;SDS011;35177;45.900;5.946;2023-07-24T05:50:49;17.85;;;9.82;;
49310;SDS011;35177;45.900;5.946;2023-07-24T05:53:15;13.38;;;8.60;;
49310;SDS011;35177;45.900;5.946;2023-07-24T05:55:41;13.13;;;8.45;;
49310;SDS011;35177;45.900;5.946;2023-07-24T05:58:07;14.02;;;9.60;;
49310;SDS011;35177;45.900;5.946;2023-07-24T06:00:33;17.20;;;8.60;;
49310;SDS011;35177;45.900;5.946;2023-07-24T06:02:59;15.05;;;9.45;;
49310;SDS011;35177;45.900;5.946;2023-07-24T06:05:24;14.40;;;8.48;;
49310;SDS011;35177;45.900;5.946;2023-07-24T06:07:49;13.15;;;7.93;;
49310;SDS011;35177;45.900;5.946;2023-07-24T06:10:15;13.25;;;8.63;;
49310;SDS011;35177;45.900;5.946;2023-07-24T06:12:40;12.40;;;7.95;;
49310;SDS011;35177;45.900;5.946;2023-07-24T06:15:06;13.88;;;7.90;;
49310;SDS011;35177;45.900;5.946;2023-07-24T06:17:32;10.40;;;8.50;;
49310;SDS011;35177;45.900;5.946;2023-07-24T06:19:57;17.05;;;8.10;;
49310;SDS011;35177;45.900;5.946;2023-07-24T06:22:23;15.23;;;8.68;;
49310;SDS011;35177;45.900;5.946;2023-07-24T06:24:49;12.95;;;7.75;;
49310;SDS011;35177;45.900;5.946;2023-07-24T06:27:14;10.40;;;7.50;;
49310;SDS011;35177;45.900;5.946;2023-07-24T06:29:40;11.85;;;7.78;;
49310;SDS011;35177;45.900;5.946;2023-07-24T06:32:06;12.40;;;7.95;;
49310;SDS011;35177;45.900;5.946;2023-07-24T06:34:32;11.77;;;7.25;;
49310;SDS011;35177;45.900;5.946;2023-07-24T06:36:58;11.43;;;7.97;;
49310;SDS011;35177;45.900;5.946;2023-07-24T06:39:23;11.52;;;7.70;;
49310;SDS011;35177;45.900;5.946;2023-07-24T06:41:49;10.93;;;7.70;;
49310;SDS011;35177;45.900;5.946;2023-07-24T06:44:17;13.82;;;7.38;;
49310;SDS011;35177;45.900;5.946;2023-07-24T06:46:42;11.57;;;7.70;;
49310;SDS011;35177;45.900;5.946;2023-07-24T06:49:08;11.02;;;8.00;;
49310;SDS011;35177;45.900;5.946;2023-07-24T06:51:33;11.82;;;7.97;;
49310;SDS011;35177;45.900;5.946;2023-07-24T06:53:59;13.73;;;8.23;;
49310;SDS011;35177;45.900;5.946;2023-07-24T06:56:24;11.32;;;7.43;;
49310;SDS011;35177;45.900;5.946;2023-07-24T06:58:49;10.43;;;7.25;;
49310;SDS011;35177;45.900;5.946;2023-07-24T07:01:15;11.15;;;7.53;;
49310;SDS011;35177;45.900;5.946;2023-07-24T07:03:40;11.25;;;6.65;;
49310;SDS011;35177;45.900;5.946;2023-07-24T07:06:06;11.63;;;6.40;;
49310;SDS011;35177;45.900;5.946;2023-07-24T07:08:31;11.57;;;6.28;;
49310;SDS011;35177;45.900;5.946;2023-07-24T07:11:00;17.45;;;7.28;;
49310;SDS011;35177;45.900;5.946;2023-07-24T07:13:27;11.35;;;7.40;;
49310;SDS011;35177;45.900;5.946;2023-07-24T07:15:52;14.15;;;7.80;;
49310;SDS011;35177;45.900;5.946;2023-07-24T07:18:18;12.30;;;7.00;;
49310;SDS011;35177;45.900;5.946;2023-07-24T07:20:45;10.85;;;7.35;;
49310;SDS011;35177;45.900;5.946;2023-07-24T07:23:11;10.07;;;6.88;;
49310;SDS011;35177;45.900;5.946;2023-07-24T07:25:37;9.05;;;6.57;;
49310;SDS011;35177;45.900;5.946;2023-07-24T07:28:02;8.68;;;6.38;;
49310;SDS011;35177;45.900;5.946;2023-07-24T07:30:28;9.82;;;6.07;;
49310;SDS011;35177;45.900;5.946;2023-07-24T07:32:53;10.07;;;6.18;;
49310;SDS011;35177;45.900;5.946;2023-07-24T07:35:19;8.98;;;5.05;;
49310;SDS011;35177;45.900;5.946;2023-07-24T07:37:44;7.88;;;4.85;;
49310;SDS011;35177;45.900;5.946;2023-07-24T07:40:10;8.13;;;5.40;;
49310;SDS011;35177;45.900;5.946;2023-07-24T07:42:36;10.95;;;5.90;;
49310;SDS011;35177;45.900;5.946;2023-07-24T07:45:01;9.82;;;5.60;;
49310;SDS011;35177;45.900;5.946;2023-07-24T07:47:27;7.93;;;4.82;;
49310;SDS011;35177;45.900;5.946;2023-07-24T07:49:52;10.00;;;4.82;;
49310;SDS011;35177;45.900;5.946;2023-07-24T07:52:18;7.22;;;5.28;;
49310;SDS011;35177;45.900;5.946;2023-07-24T07:54:48;7.07;;;5.38;;
49310;SDS011;35177;45.900;5.946;2023-07-24T07:57:14;11.80;;;5.68;;
49310;SDS011;35177;45.900;5.946;2023-07-24T07:59:39;10.43;;;5.45;;
49310;SDS011;35177;45.900;5.946;2023-07-24T08:02:05;7.90;;;5.10;;
49310;SDS011;35177;45.900;5.946;2023-07-24T08:04:31;8.23;;;5.38;;
49310;SDS011;35177;45.900;5.946;2023-07-24T08:06:57;8.20;;;5.50;;
49310;SDS011;35177;45.900;5.946;2023-07-24T08:09:23;9.43;;;5.57;;
49310;SDS011;35177;45.900;5.946;2023-07-24T08:11:49;12.57;;;6.68;;
49310;SDS011;35177;45.900;5.946;2023-07-24T08:14:16;12.70;;;6.18;;
49310;SDS011;35177;45.900;5.946;2023-07-24T08:16:42;9.25;;;5.25;;
49310;SDS011;35177;45.900;5.946;2023-07-24T08:19:07;17.30;;;5.75;;
49310;SDS011;35177;45.900;5.946;2023-07-24T08:21:33;9.10;;;4.75;;
49310;SDS011;35177;45.900;5.946;2023-07-24T08:23:58;8.32;;;5.30;;
49310;SDS011;35177;45.900;5.946;2023-07-24T08:26:25;10.00;;;4.95;;
49310;SDS011;35177;45.900;5.946;2023-07-24T08:28:51;8.55;;;5.35;;
49310;SDS011;35177;45.900;5.946;2023-07-24T08:31:17;14.75;;;5.30;;
49310;SDS011;35177;45.900;5.946;2023-07-24T08:33:42;10.90;;;5.43;;
49310;SDS011;35177;45.900;5.946;2023-07-24T08:36:08;7.45;;;5.70;;
49310;SDS011;35177;45.900;5.946;2023-07-24T08:38:34;9.60;;;6.07;;
49310;SDS011;35177;45.900;5.946;2023-07-24T08:41:01;12.30;;;5.30;;
49310;SDS011;35177;45.900;5.946;2023-07-24T08:43:27;10.32;;;5.63;;
49310;SDS011;35177;45.900;5.946;2023-07-24T08:45:55;7.53;;;5.18;;
49310;SDS011;35177;45.900;5.946;2023-07-24T08:48:22;9.57;;;5.63;;
49310;SDS011;35177;45.900;5.946;2023-07-24T08:50:50;10.13;;;5.85;;
49310;SDS011;35177;45.900;5.946;2023-07-24T08:53:17;7.57;;;5.40;;
49310;SDS011;35177;45.900;5.946;2023-07-24T08:55:45;9.85;;;5.20;;
49310;SDS011;35177;45.900;5.946;2023-07-24T08:58:14;9.95;;;6.05;;
49310;SDS011;35177;45.900;5.946;2023-07-24T09:00:39;9.57;;;6.18;;
49310;SDS011;35177;45.900;5.946;2023-07-24T09:03:05;16.23;;;6.60;;
49310;SDS011;35177;45.900;5.946;2023-07-24T09:05:30;12.77;;;6.45;;
49310;SDS011;35177;45.900;5.946;2023-07-24T09:07:56;12.57;;;5.95;;
49310;SDS011;35177;45.900;5.946;2023-07-24T09:10:25;13.05;;;6.60;;
49310;SDS011;35177;45.900;5.946;2023-07-24T09:12:51;10.90;;;6.88;;
49310;SDS011;35177;45.900;5.946;2023-07-24T09:15:17;9.52;;;5.72;;
49310;SDS011;35177;45.900;5.946;2023-07-24T09:17:52;9.23;;;5.90;;
49310;SDS011;35177;45.900;5.946;2023-07-24T09:20:18;11.65;;;6.32;;
49310;SDS011;35177;45.900;5.946;2023-07-24T09:22:51;9.02;;;6.18;;
49310;SDS011;35177;45.900;5.946;2023-07-24T09:25:17;10.10;;;6.78;;
49310;SDS011;35177;45.900;5.946;2023-07-24T09:27:43;11.63;;;6.47;;
49310;SDS011;35177;45.900;5.946;2023-07-24T09:30:13;14.65;;;7.47;;
49310;SDS011;35177;45.900;5.946;2023-07-24T09:32:39;13.52;;;7.63;;
49310;SDS011;35177;45.900;5.946;2023-07-24T09:35:15;10.00;;;6.45;;
49310;SDS011;35177;45.900;5.946;2023-07-24T09:37:43;11.50;;;6.93;;
49310;SDS011;35177;45.900;5.946;2023-07-24T09:40:09;17.27;;;7.00;;
49310;SDS011;35177;45.900;5.946;2023-07-24T09:42:36;14.73;;;7.00;;
49310;SDS011;35177;45.900;5.946;2023-07-24T09:45:03;16.23;;;7.75;;
49310;SDS011;35177;45.900;5.946;2023-07-24T09:47:29;18.42;;;7.60;;
49310;SDS011;35177;45.900;5.946;2023-07-24T09:49:55;12.38;;;6.22;;
49310;SDS011;35177;45.900;5.946;2023-07-24T09:52:21;11.60;;;5.65;;
49310;SDS011;35177;45.900;5.946;2023-07-24T09:54:55;10.63;;;5.50;;
49310;SDS011;35177;45.900;5.946;2023-07-24T09:57:22;10.70;;;5.72;;
49310;SDS011;35177;45.900;5.946;2023-07-24T09:59:49;12.30;;;6.07;;
49310;SDS011;35177;45.900;5.946;2023-07-24T10:02:16;7.57;;;4.63;;
49310;SDS011;35177;45.900;5.946;2023-07-24T10:04:42;8.30;;;5.95;;
49310;SDS011;35177;45.900;5.946;2023-07-24T10:07:09;8.95;;;5.68;;
49310;SDS011;35177;45.900;5.946;2023-07-24T10:09:35;7.00;;;5.07;;
49310;SDS011;35177;45.900;5.946;2023-07-24T10:12:02;8.05;;;5.22;;
49310;SDS011;35177;45.900;5.946;2023-07-24T10:14:27;6.68;;;4.93;;
49310;SDS011;35177;45.900;5.946;2023-07-24T10:16:55;12.45;;;5.25;;
49310;SDS011;35177;45.900;5.946;2023-07-24T10:19:21;7.30;;;4.90;;
49310;SDS011;35177;45.900;5.946;2023-07-24T10:21:47;8.27;;;5.32;;
49310;SDS011;35177;45.900;5.946;2023-07-24T10:24:14;9.75;;;5.22;;
49310;SDS011;35177;45.900;5.946;2023-07-24T10:26:40;9.55;;;5.13;;
49310;SDS011;35177;45.900;5.946;2023-07-24T10:29:06;6.57;;;4.70;;
49310;SDS011;35177;45.900;5.946;2023-07-24T10:31:32;14.27;;;5.18;;
49310;SDS011;35177;45.900;5.946;2023-07-24T10:34:07;8.30;;;4.53;;
49310;SDS011;35177;45.900;5.946;2023-07-24T10:36:33;9.13;;;4.60;;
49310;SDS011;35177;45.900;5.946;2023-07-24T10:38:59;7.63;;;4.63;;
49310;SDS011;35177;45.900;5.946;2023-07-24T10:41:36;7.40;;;4.53;;
49310;SDS011;35177;45.900;5.946;2023-07-24T10:44:02;9.45;;;3.97;;
49310;SDS011;35177;45.900;5.946;2023-07-24T10:49:07;7.75;;;4.53;;
49310;SDS011;35177;45.900;5.946;2023-07-24T10:51:33;7.65;;;4.93;;
49310;SDS011;35177;45.900;5.946;2023-07-24T10:54:01;9.70;;;4.40;;
49310;SDS011;35177;45.900;5.946;2023-07-24T10:56:27;5.95;;;3.80;;
49310;SDS011;35177;45.900;5.946;2023-07-24T10:58:54;6.88;;;4.25;;
49310;SDS011;35177;45.900;5.946;2023-07-24T11:01:19;10.55;;;4.40;;
49310;SDS011;35177;45.900;5.946;2023-07-24T11:03:45;8.77;;;4.53;;
49310;SDS011;35177;45.900;5.946;2023-07-24T11:06:16;5.88;;;3.75;;
49310;SDS011;35177;45.900;5.946;2023-07-24T11:08:53;6.57;;;3.92;;
49310;SDS011;35177;45.900;5.946;2023-07-24T11:11:30;8.75;;;4.32;;
49310;SDS011;35177;45.900;5.946;2023-07-24T11:13:56;6.75;;;4.13;;
49310;SDS011;35177;45.900;5.946;2023-07-24T11:16:22;6.03;;;4.22;;
49310;SDS011;35177;45.900;5.946;2023-07-24T11:18:49;7.78;;;4.10;;
49310;SDS011;35177;45.900;5.946;2023-07-24T11:21:17;9.50;;;4.63;;
49310;SDS011;35177;45.900;5.946;2023-07-24T11:23:46;7.53;;;4.18;;
49310;SDS011;35177;45.900;5.946;2023-07-24T11:28:49;7.38;;;4.47;;
49310;SDS011;35177;45.900;5.946;2023-07-24T11:31:15;7.22;;;4.28;;
49310;SDS011;35177;45.900;5.946;2023-07-24T11:33:40;9.38;;;4.53;;
49310;SDS011;35177;45.900;5.946;2023-07-24T11:36:08;7.90;;;4.20;;
49310;SDS011;35177;45.900;5.946;2023-07-24T11:38:35;10.90;;;4.93;;
49310;SDS011;35177;45.900;5.946;2023-07-24T11:41:03;8.60;;;4.10;;
49310;SDS011;35177;45.900;5.946;2023-07-24T11:43:28;6.43;;;4.00;;
49310;SDS011;35177;45.900;5.946;2023-07-24T11:45:54;7.93;;;3.88;;
49310;SDS011;35177;45.900;5.946;2023-07-24T11:48:21;5.82;;;3.70;;
49310;SDS011;35177;45.900;5.946;2023-07-24T11:50:48;10.90;;;4.15;;
49310;SDS011;35177;45.900;5.946;2023-07-24T11:53:27;7.13;;;3.80;;
49310;SDS011;35177;45.900;5.946;2023-07-24T11:55:55;7.03;;;4.40;;
49310;SDS011;35177;45.900;5.946;2023-07-24T11:58:28;7.78;;;3.95;;
49310;SDS011;35177;45.900;5.946;2023-07-24T12:00:54;5.38;;;3.70;;
49310;SDS011;35177;45.900;5.946;2023-07-24T12:05:46;9.85;;;3.97;;
49310;SDS011;35177;45.900;5.946;2023-07-24T12:08:12;6.68;;;3.90;;
49310;SDS011;35177;45.900;5.946;2023-07-24T12:10:39;7.28;;;3.88;;
49310;SDS011;35177;45.900;5.946;2023-07-24T12:13:05;9.02;;;3.97;;
49310;SDS011;35177;45.900;5.946;2023-07-24T12:15:31;6.55;;;4.22;;
49310;SDS011;35177;45.900;5.946;2023-07-24T12:17:59;5.80;;;3.58;;
49310;SDS011;35177;45.900;5.946;2023-07-24T12:20:26;5.82;;;3.83;;
49310;SDS011;35177;45.900;5.946;2023-07-24T12:22:52;11.63;;;4.38;;
49310;SDS011;35177;45.900;5.946;2023-07-24T12:25:18;8.40;;;4.25;;
49310;SDS011;35177;45.900;5.946;2023-07-24T12:27:45;5.47;;;4.07;;
49310;SDS011;35177;45.900;5.946;2023-07-24T12:30:10;7.47;;;4.18;;
49310;SDS011;35177;45.900;5.946;2023-07-24T12:32:36;6.47;;;4.15;;
49310;SDS011;35177;45.900;5.946;2023-07-24T12:35:01;8.32;;;4.47;;
49310;SDS011;35177;45.900;5.946;2023-07-24T12:37:27;6.32;;;4.10;;
49310;SDS011;35177;45.900;5.946;2023-07-24T12:39:53;7.28;;;4.05;;
49310;SDS011;35177;45.900;5.946;2023-07-24T12:42:19;6.35;;;3.90;;
49310;SDS011;35177;45.900;5.946;2023-07-24T12:44:44;10.45;;;4.15;;
49310;SDS011;35177;45.900;5.946;2023-07-24T12:47:10;8.35;;;4.85;;
49310;SDS011;35177;45.900;5.946;2023-07-24T12:49:36;9.10;;;4.13;;
49310;SDS011;35177;45.900;5.946;2023-07-24T12:52:02;7.45;;;3.90;;
49310;SDS011;35177;45.900;5.946;2023-07-24T12:54:28;7.00;;;3.92;;
49310;SDS011;35177;45.900;5.946;2023-07-24T12:56:54;10.55;;;4.82;;
49310;SDS011;35177;45.900;5.946;2023-07-24T12:59:19;6.85;;;4.07;;
49310;SDS011;35177;45.900;5.946;2023-07-24T13:01:45;7.70;;;4.57;;
49310;SDS011;35177;45.900;5.946;2023-07-24T13:04:12;7.88;;;4.40;;
49310;SDS011;35177;45.900;5.946;2023-07-24T13:06:38;7.13;;;4.25;;
49310;SDS011;35177;45.900;5.946;2023-07-24T13:09:03;10.52;;;4.88;;
49310;SDS011;35177;45.900;5.946;2023-07-24T13:11:30;6.13;;;4.05;;
49310;SDS011;35177;45.900;5.946;2023-07-24T13:13:56;7.47;;;4.15;;
49310;SDS011;35177;45.900;5.946;2023-07-24T13:16:22;7.70;;;4.35;;
49310;SDS011;35177;45.900;5.946;2023-07-24T13:18:49;6.78;;;4.95;;
49310;SDS011;35177;45.900;5.946;2023-07-24T13:21:17;8.13;;;2.70;;
49310;SDS011;35177;45.900;5.946;2023-07-24T13:23:42;3.13;;;1.83;;
49310;SDS011;35177;45.900;5.946;2023-07-24T13:26:08;4.05;;;2.00;;
49310;SDS011;35177;45.900;5.946;2023-07-24T13:28:35;3.40;;;1.95;;
49310;SDS011;35177;45.900;5.946;2023-07-24T13:33:56;3.15;;;2.20;;
49310;SDS011;35177;45.900;5.946;2023-07-24T13:36:22;2.80;;;2.05;;
49310;SDS011;35177;45.900;5.946;2023-07-24T13:38:47;4.50;;;2.17;;
49310;SDS011;35177;45.900;5.946;2023-07-24T13:41:13;3.58;;;1.77;;
49310;SDS011;35177;45.900;5.946;2023-07-24T13:43:38;5.90;;;2.33;;
49310;SDS011;35177;45.900;5.946;2023-07-24T13:46:04;5.00;;;2.97;;
49310;SDS011;35177;45.900;5.946;2023-07-24T13:48:30;3.40;;;2.38;;
49310;SDS011;35177;45.900;5.946;2023-07-24T13:50:55;2.97;;;2.05;;
49310;SDS011;35177;45.900;5.946;2023-07-24T13:53:21;2.88;;;2.10;;
49310;SDS011;35177;45.900;5.946;2023-07-24T13:55:47;3.03;;;2.10;;
49310;SDS011;35177;45.900;5.946;2023-07-24T13:58:13;3.97;;;2.15;;
49310;SDS011;35177;45.900;5.946;2023-07-24T14:00:39;3.50;;;2.63;;
49310;SDS011;35177;45.900;5.946;2023-07-24T14:03:04;3.47;;;2.42;;
49310;SDS011;35177;45.900;5.946;2023-07-24T14:05:30;4.05;;;2.95;;
49310;SDS011;35177;45.900;5.946;2023-07-24T14:07:55;3.85;;;3.05;;
49310;SDS011;35177;45.900;5.946;2023-07-24T14:10:21;4.60;;;3.13;;
49310;SDS011;35177;45.900;5.946;2023-07-24T14:12:46;4.70;;;3.35;;
49310;SDS011;35177;45.900;5.946;2023-07-24T14:15:12;5.70;;;2.88;;
49310;SDS011;35177;45.900;5.946;2023-07-24T14:17:37;8.40;;;3.88;;
49310;SDS011;35177;45.900;5.946;2023-07-24T14:20:03;3.70;;;3.22;;
49310;SDS011;35177;45.900;5.946;2023-07-24T14:22:29;4.72;;;3.05;;
49310;SDS011;35177;45.900;5.946;2023-07-24T14:24:54;6.13;;;3.28;;
49310;SDS011;35177;45.900;5.946;2023-07-24T14:27:20;5.95;;;3.42;;
49310;SDS011;35177;45.900;5.946;2023-07-24T14:29:45;4.60;;;3.10;;
49310;SDS011;35177;45.900;5.946;2023-07-24T14:32:11;5.40;;;2.90;;
49310;SDS011;35177;45.900;5.946;2023-07-24T14:34:36;6.55;;;3.20;;
49310;SDS011;35177;45.900;5.946;2023-07-24T14:37:02;5.03;;;2.55;;
49310;SDS011;35177;45.900;5.946;2023-07-24T14:39:27;4.47;;;3.00;;
49310;SDS011;35177;45.900;5.946;2023-07-24T14:41:53;3.10;;;2.40;;
49310;SDS011;35177;45.900;5.946;2023-07-24T14:44:18;3.78;;;2.30;;
49310;SDS011;35177;45.900;5.946;2023-07-24T14:46:44;5.53;;;2.25;;
49310;SDS011;35177;45.900;5.946;2023-07-24T14:49:09;4.57;;;2.05;;
49310;SDS011;35177;45.900;5.946;2023-07-24T14:51:35;4.20;;;2.50;;